createdAt,value
2023-03-30T00:01:15.339Z,7.57
2023-03-30T00:03:43.765Z,5.57
2023-03-30T00:06:14.364Z,5.45
2023-03-30T00:08:41.674Z,9.55
2023-03-30T00:11:13.400Z,5.22
2023-03-30T00:13:40.682Z,6.13
2023-03-30T00:16:12.718Z,6.30
2023-03-30T00:18:40.813Z,6.45
2023-03-30T00:21:10.024Z,9.27
2023-03-30T00:23:38.919Z,7.35
2023-03-30T00:26:07.476Z,6.65
2023-03-30T00:28:34.889Z,8.52
2023-03-30T00:31:02.484Z,8.38
2023-03-30T00:33:44.073Z,9.20
2023-03-30T00:36:12.773Z,5.05
2023-03-30T00:38:40.798Z,5.30
2023-03-30T00:41:09.303Z,7.63
2023-03-30T00:43:58.602Z,8.25
2023-03-30T00:46:25.876Z,7.55
2023-03-30T00:48:57.800Z,6.45
2023-03-30T00:51:27.080Z,9.18
2023-03-30T00:54:00.404Z,7.70
2023-03-30T00:56:30.208Z,8.25
2023-03-30T00:58:57.376Z,9.75
2023-03-30T01:01:29.030Z,8.30
2023-03-30T01:04:02.327Z,6.55
2023-03-30T01:06:31.436Z,7.85
2023-03-30T01:08:59.085Z,7.13
2023-03-30T01:11:27.462Z,3.95
2023-03-30T01:14:02.037Z,9.68
2023-03-30T01:16:50.489Z,7.15
2023-03-30T01:19:38.878Z,5.43
2023-03-30T01:22:14.869Z,4.15
2023-03-30T01:25:23.222Z,5.73
2023-03-30T01:28:05.105Z,10.98
2023-03-30T01:31:16.044Z,7.22
2023-03-30T01:34:07.977Z,7.35
2023-03-30T01:37:02.200Z,6.85
2023-03-30T01:39:59.908Z,4.72
2023-03-30T01:42:36.218Z,5.30
2023-03-30T01:45:14.018Z,7.65
2023-03-30T01:48:19.962Z,5.07
2023-03-30T01:50:49.375Z,6.05
2023-03-30T01:53:33.605Z,5.93
2023-03-30T01:56:17.419Z,4.30
2023-03-30T01:59:01.426Z,6.57
2023-03-30T02:01:30.487Z,10.63
2023-03-30T02:03:59.605Z,4.57
2023-03-30T02:06:40.146Z,7.28
2023-03-30T02:09:12.461Z,4.93
2023-03-30T02:11:44.274Z,4.55
2023-03-30T02:14:16.869Z,6.40
2023-03-30T02:16:50.214Z,11.18
2023-03-30T02:19:19.286Z,4.25
2023-03-30T02:21:48.006Z,6.00
2023-03-30T02:24:20.703Z,6.22
2023-03-30T02:26:52.221Z,6.13
2023-03-30T02:29:22.985Z,6.47
2023-03-30T02:31:55.010Z,3.95
2023-03-30T02:34:40.358Z,9.05
2023-03-30T02:37:47.243Z,3.95
2023-03-30T02:41:13.884Z,4.20
2023-03-30T02:44:07.934Z,5.78
2023-03-30T02:47:00.428Z,8.75
2023-03-30T02:49:53.653Z,7.78
2023-03-30T02:52:54.291Z,4.35
2023-03-30T02:55:47.279Z,5.57
2023-03-30T02:58:26.367Z,7.60
2023-03-30T03:01:04.297Z,5.97
2023-03-30T03:03:43.688Z,8.25
2023-03-30T03:06:14.699Z,6.10
2023-03-30T03:08:45.079Z,6.18
2023-03-30T03:11:12.266Z,4.05
2023-03-30T03:13:39.815Z,5.18
2023-03-30T03:16:13.057Z,5.72
2023-03-30T03:18:42.072Z,6.28
2023-03-30T03:21:12.350Z,5.65
2023-03-30T03:23:40.414Z,7.25
2023-03-30T03:26:08.316Z,10.43
2023-03-30T03:28:35.902Z,4.65
2023-03-30T03:31:03.930Z,6.75
2023-03-30T03:33:33.664Z,7.82
2023-03-30T03:36:01.058Z,5.25
2023-03-30T03:38:28.850Z,8.38
2023-03-30T03:40:58.865Z,7.70
2023-03-30T03:43:26.152Z,4.82
2023-03-30T03:45:53.515Z,8.70
2023-03-30T03:48:24.032Z,9.03
2023-03-30T03:50:54.377Z,7.68
2023-03-30T03:53:22.574Z,7.28
2023-03-30T03:55:49.874Z,10.45
2023-03-30T03:58:17.393Z,8.35
2023-03-30T04:00:44.776Z,7.72
2023-03-30T04:03:12.454Z,6.90
2023-03-30T04:05:40.095Z,8.20
2023-03-30T04:08:10.798Z,7.57
2023-03-30T04:10:39.970Z,8.40
2023-03-30T04:13:07.087Z,6.43
2023-03-30T04:15:34.361Z,7.13
2023-03-30T04:18:01.772Z,9.40
2023-03-30T04:20:30.007Z,8.87
2023-03-30T04:22:57.477Z,8.87
2023-03-30T04:25:25.895Z,7.70
2023-03-30T04:27:53.850Z,10.47
2023-03-30T04:30:22.537Z,9.93
2023-03-30T04:33:05.354Z,10.70
2023-03-30T04:35:34.220Z,7.63
2023-03-30T04:38:02.671Z,10.83
2023-03-30T04:40:30.347Z,9.27
2023-03-30T04:43:02.733Z,10.40
2023-03-30T04:45:31.155Z,8.67
2023-03-30T04:47:58.411Z,7.17
2023-03-30T04:50:25.645Z,14.60
2023-03-30T04:52:52.767Z,12.53
2023-03-30T04:55:19.921Z,9.73
2023-03-30T04:57:47.295Z,10.97
2023-03-30T05:00:15.040Z,9.77
2023-03-30T05:02:42.188Z,8.13
2023-03-30T05:05:09.548Z,7.93
2023-03-30T05:07:36.583Z,8.87
2023-03-30T05:10:03.866Z,11.40
2023-03-30T05:12:30.878Z,11.43
2023-03-30T05:14:58.030Z,10.47
2023-03-30T05:17:25.040Z,13.43
2023-03-30T05:19:52.088Z,14.77
2023-03-30T05:22:19.064Z,15.70
2023-03-30T05:24:46.254Z,16.23
2023-03-30T05:27:14.074Z,15.20
2023-03-30T05:29:41.073Z,12.97
2023-03-30T05:32:08.147Z,22.63
2023-03-30T05:34:35.415Z,16.70
2023-03-30T05:37:02.496Z,17.83
2023-03-30T05:39:29.467Z,21.70
2023-03-30T05:41:56.409Z,17.97
2023-03-30T05:44:23.576Z,15.50
2023-03-30T05:46:50.607Z,16.93
2023-03-30T05:49:17.596Z,25.43
2023-03-30T05:51:44.572Z,14.37
2023-03-30T05:54:12.980Z,22.43
2023-03-30T05:56:42.255Z,22.33
2023-03-30T05:59:10.443Z,23.50
2023-03-30T06:01:38.440Z,19.83
2023-03-30T06:04:06.305Z,24.33
2023-03-30T06:06:33.332Z,20.60
2023-03-30T06:09:00.386Z,24.30
2023-03-30T06:11:28.318Z,22.10
2023-03-30T06:13:55.289Z,21.23
2023-03-30T06:16:22.476Z,19.37
2023-03-30T06:18:49.879Z,23.73
2023-03-30T06:21:17.458Z,22.07
2023-03-30T06:23:44.503Z,18.67
2023-03-30T06:26:11.556Z,22.67
2023-03-30T06:28:38.812Z,24.90
2023-03-30T06:31:11.468Z,19.47
2023-03-30T06:33:41.519Z,22.07
2023-03-30T06:36:14.317Z,20.77
2023-03-30T06:38:43.682Z,20.10
2023-03-30T06:41:12.636Z,25.47
2023-03-30T06:43:40.690Z,28.30
2023-03-30T06:46:08.753Z,25.10
2023-03-30T06:48:35.892Z,25.07
2023-03-30T06:51:04.434Z,31.37
2023-03-30T06:53:31.613Z,27.30
2023-03-30T06:55:59.242Z,25.10
2023-03-30T06:58:28.342Z,41.00
2023-03-30T07:00:55.779Z,28.23
2023-03-30T07:03:23.211Z,25.33
2023-03-30T07:05:53.904Z,27.90
2023-03-30T07:08:21.445Z,28.23
2023-03-30T07:10:48.856Z,28.97
2023-03-30T07:13:19.212Z,30.13
2023-03-30T07:15:46.997Z,23.67
2023-03-30T07:18:14.949Z,23.77
2023-03-30T07:20:42.029Z,27.27
2023-03-30T07:23:09.031Z,25.40
2023-03-30T07:25:36.664Z,28.50
2023-03-30T07:28:06.330Z,27.90
2023-03-30T07:30:34.763Z,27.47
2023-03-30T07:33:02.116Z,24.33
2023-03-30T07:35:29.151Z,28.40
2023-03-30T07:38:02.836Z,23.33
2023-03-30T07:40:31.042Z,30.93
2023-03-30T07:42:58.521Z,33.37
2023-03-30T07:45:25.689Z,29.73
2023-03-30T07:47:52.731Z,25.70
2023-03-30T07:50:19.762Z,29.57
2023-03-30T07:52:46.758Z,24.53
2023-03-30T07:55:13.833Z,35.90
2023-03-30T07:57:40.781Z,30.40
2023-03-30T08:00:10.507Z,25.47
2023-03-30T08:02:37.971Z,37.87
2023-03-30T08:05:05.628Z,36.13
2023-03-30T08:07:34.366Z,29.50
2023-03-30T08:10:01.783Z,25.83
2023-03-30T08:12:28.863Z,33.88
2023-03-30T08:14:55.881Z,35.72
2023-03-30T08:17:23.142Z,27.30
2023-03-30T08:19:50.254Z,27.42
2023-03-30T08:22:17.419Z,24.95
2023-03-30T08:24:44.569Z,31.25
2023-03-30T08:27:11.678Z,30.52
2023-03-30T08:29:38.615Z,27.98
2023-03-30T08:32:05.822Z,29.20
2023-03-30T08:34:35.354Z,31.40
2023-03-30T08:37:03.137Z,27.98
2023-03-30T08:39:40.487Z,31.55
2023-03-30T08:42:43.490Z,34.08
2023-03-30T08:45:12.795Z,29.00
2023-03-30T08:47:48.066Z,26.23
2023-03-30T08:50:36.663Z,23.80
2023-03-30T08:53:06.631Z,22.77
2023-03-30T08:56:03.462Z,28.38
2023-03-30T08:58:54.882Z,23.93
2023-03-30T09:01:52.147Z,28.57
2023-03-30T09:04:43.565Z,36.33
2023-03-30T09:07:20.393Z,35.83
2023-03-30T09:09:49.540Z,26.37
2023-03-30T09:12:57.784Z,22.33
2023-03-30T09:15:40.599Z,25.30
2023-03-30T09:18:19.850Z,13.30
2023-03-30T09:20:50.854Z,20.48
2023-03-30T09:23:18.389Z,12.67
2023-03-30T09:26:04.441Z,17.67
2023-03-30T09:29:03.863Z,15.57
2023-03-30T09:31:41.694Z,11.55
2023-03-30T09:34:27.214Z,9.77
2023-03-30T09:37:05.405Z,19.00
2023-03-30T09:39:36.459Z,10.52
2023-03-30T09:42:36.464Z,15.40
2023-03-30T09:45:22.984Z,14.05
2023-03-30T09:47:49.999Z,22.60
2023-03-30T09:50:27.689Z,12.23
2023-03-30T09:53:24.994Z,17.73
2023-03-30T09:56:51.605Z,26.23
2023-03-30T09:59:38.114Z,20.65
2023-03-30T10:02:19.176Z,23.43
2023-03-30T10:04:52.713Z,22.67
2023-03-30T10:07:30.544Z,22.90
2023-03-30T10:10:01.519Z,25.35
2023-03-30T10:12:30.485Z,29.77
2023-03-30T10:15:02.408Z,29.30
2023-03-30T10:17:31.119Z,18.55
2023-03-30T10:20:37.497Z,23.00
2023-03-30T10:23:18.771Z,23.83
2023-03-30T10:25:50.221Z,20.90
2023-03-30T10:28:30.920Z,21.92
2023-03-30T10:31:02.039Z,26.60
2023-03-30T10:33:31.825Z,27.20
2023-03-30T10:36:01.089Z,18.77
2023-03-30T10:38:33.224Z,26.25
2023-03-30T10:41:20.469Z,22.98
2023-03-30T10:43:50.035Z,23.35
2023-03-30T10:46:23.578Z,23.02
2023-03-30T10:49:05.989Z,25.65
2023-03-30T10:52:05.937Z,26.23
2023-03-30T10:54:54.277Z,27.45
2023-03-30T10:57:30.264Z,19.95
2023-03-30T11:00:15.520Z,24.10
2023-03-30T11:03:00.781Z,25.17
2023-03-30T11:05:40.333Z,24.83
2023-03-30T11:08:13.458Z,30.77
2023-03-30T11:10:52.663Z,28.42
2023-03-30T11:13:37.444Z,28.80
2023-03-30T11:16:37.347Z,31.38
2023-03-30T11:19:18.374Z,23.30
2023-03-30T11:22:05.053Z,28.42
2023-03-30T11:24:35.858Z,27.05
2023-03-30T11:27:14.647Z,32.63
2023-03-30T11:30:14.714Z,23.52
2023-03-30T11:32:55.703Z,19.33
2023-03-30T11:35:46.567Z,21.10
2023-03-30T11:38:36.749Z,20.67
2023-03-30T11:41:13.948Z,16.95
2023-03-30T11:43:41.851Z,21.25
2023-03-30T11:46:59.053Z,21.55
2023-03-30T11:49:35.398Z,20.45
2023-03-30T11:52:52.203Z,17.27
2023-03-30T11:55:32.886Z,20.58
2023-03-30T11:58:30.894Z,24.40
2023-03-30T12:01:23.157Z,19.80
2023-03-30T12:04:14.725Z,26.42
2023-03-30T12:06:57.732Z,20.25
2023-03-30T12:09:48.189Z,17.38
2023-03-30T12:12:32.746Z,16.90
2023-03-30T12:15:56.733Z,21.60
2023-03-30T12:18:31.807Z,19.20
2023-03-30T12:21:36.612Z,20.63
2023-03-30T12:24:28.103Z,19.55
2023-03-30T12:27:05.059Z,27.17
2023-03-30T12:32:30.892Z,20.77
2023-03-30T12:34:58.755Z,24.73
2023-03-30T12:37:35.637Z,24.58
2023-03-30T12:40:08.851Z,21.00
2023-03-30T12:43:11.105Z,23.10
2023-03-30T12:46:02.761Z,19.58
2023-03-30T12:48:29.858Z,17.10
2023-03-30T12:51:37.893Z,21.40
2023-03-30T12:54:08.440Z,19.38
2023-03-30T12:56:58.890Z,15.48
2023-03-30T12:59:41.520Z,16.10
2023-03-30T13:02:41.123Z,19.38
2023-03-30T13:05:32.831Z,14.45
2023-03-30T13:08:09.368Z,16.63
2023-03-30T13:10:42.314Z,21.55
2023-03-30T13:13:24.423Z,20.45
2023-03-30T13:15:54.842Z,18.20
2023-03-30T13:18:34.567Z,18.70
2023-03-30T13:21:16.917Z,14.23
2023-03-30T13:23:45.932Z,13.13
2023-03-30T13:29:11.525Z,19.02
2023-03-30T13:31:51.127Z,14.52
2023-03-30T13:34:58.551Z,16.35
2023-03-30T13:37:53.401Z,15.85
2023-03-30T13:40:38.535Z,20.38
2023-03-30T13:43:41.856Z,12.95
2023-03-30T13:46:29.829Z,15.77
2023-03-30T13:49:12.508Z,18.98
2023-03-30T13:51:42.535Z,21.40
2023-03-30T13:54:24.651Z,15.68
2023-03-30T13:57:17.206Z,16.30
2023-03-30T13:59:53.532Z,18.48
2023-03-30T14:02:23.309Z,13.70
2023-03-30T14:04:50.595Z,15.32
2023-03-30T14:07:24.179Z,16.60
2023-03-30T14:10:11.946Z,19.67
2023-03-30T14:12:40.173Z,15.63
2023-03-30T14:15:39.256Z,17.13
2023-03-30T14:18:11.691Z,17.45
2023-03-30T14:20:57.681Z,12.43
2023-03-30T14:23:41.865Z,11.48
2023-03-30T14:26:29.487Z,10.48
2023-03-30T14:29:03.240Z,10.77
2023-03-30T14:31:40.625Z,11.55
2023-03-30T14:34:33.671Z,12.63
2023-03-30T14:37:04.966Z,18.35
2023-03-30T14:39:36.324Z,13.25
2023-03-30T14:42:36.516Z,12.60
2023-03-30T14:45:03.981Z,11.48
2023-03-30T14:47:31.463Z,13.02
2023-03-30T14:50:03.115Z,11.75
2023-03-30T14:52:40.844Z,12.15
2023-03-30T14:55:17.610Z,13.50
2023-03-30T14:57:47.071Z,19.15
2023-03-30T15:00:24.943Z,17.20
2023-03-30T15:02:55.984Z,16.30
2023-03-30T15:05:28.279Z,17.10
2023-03-30T15:07:55.837Z,17.88
2023-03-30T15:10:36.049Z,16.10
2023-03-30T15:13:03.950Z,17.13
2023-03-30T15:15:32.828Z,15.60
2023-03-30T15:18:02.088Z,16.05
2023-03-30T15:20:31.496Z,14.00
2023-03-30T15:23:00.025Z,11.43
2023-03-30T15:25:35.240Z,21.83
2023-03-30T15:28:09.451Z,13.95
2023-03-30T15:30:41.191Z,17.13
2023-03-30T15:33:37.619Z,15.23
2023-03-30T15:36:12.785Z,15.02
2023-03-30T15:38:53.450Z,12.38
2023-03-30T15:41:44.722Z,12.75
2023-03-30T15:44:20.277Z,18.10
2023-03-30T15:46:50.531Z,17.02
2023-03-30T15:49:25.266Z,17.25
2023-03-30T15:52:01.879Z,13.82
2023-03-30T15:54:38.536Z,17.58
2023-03-30T15:57:20.319Z,17.50
2023-03-30T15:59:50.468Z,13.85
2023-03-30T16:02:43.373Z,12.48
2023-03-30T16:05:22.244Z,12.38
2023-03-30T16:07:49.812Z,19.40
2023-03-30T16:10:20.774Z,15.13
2023-03-30T16:12:48.703Z,16.05
2023-03-30T16:15:22.378Z,16.65
2023-03-30T16:17:50.158Z,16.67
2023-03-30T16:20:24.421Z,17.70
2023-03-30T16:22:51.784Z,15.27
2023-03-30T16:25:23.230Z,16.67
2023-03-30T16:27:55.630Z,17.65
2023-03-30T16:30:34.124Z,15.93
2023-03-30T16:33:02.824Z,17.90
2023-03-30T16:35:30.935Z,13.60
2023-03-30T16:37:57.963Z,18.95
2023-03-30T16:40:41.484Z,21.80
2023-03-30T16:43:10.154Z,16.92
2023-03-30T16:45:37.523Z,16.45
2023-03-30T16:48:05.147Z,18.35
2023-03-30T16:50:40.556Z,17.42
2023-03-30T16:53:09.816Z,13.52
2023-03-30T16:55:38.901Z,16.75
2023-03-30T16:58:08.318Z,16.77
2023-03-30T17:00:45.959Z,22.08
2023-03-30T17:03:13.511Z,22.10
2023-03-30T17:05:41.072Z,21.27
2023-03-30T17:08:29.050Z,14.07
2023-03-30T17:11:01.054Z,16.30
2023-03-30T17:13:28.652Z,15.57
2023-03-30T17:15:55.867Z,19.48
2023-03-30T17:18:25.155Z,18.92
2023-03-30T17:21:02.239Z,17.30
2023-03-30T17:23:34.828Z,19.15
2023-03-30T17:26:02.763Z,19.80
2023-03-30T17:28:33.441Z,19.08
2023-03-30T17:31:03.545Z,26.25
2023-03-30T17:33:31.845Z,25.83
2023-03-30T17:36:07.517Z,29.30
2023-03-30T17:38:34.504Z,18.65
2023-03-30T17:41:01.761Z,19.20
2023-03-30T17:43:28.687Z,16.67
2023-03-30T17:45:55.701Z,16.35
2023-03-30T17:48:22.862Z,17.42
2023-03-30T17:50:51.151Z,13.98
2023-03-30T17:53:20.745Z,16.55
2023-03-30T17:55:51.889Z,16.60
2023-03-30T17:58:24.729Z,16.00
2023-03-30T18:00:53.502Z,18.80
2023-03-30T18:03:23.446Z,17.63
2023-03-30T18:05:51.088Z,17.60
2023-03-30T18:08:22.412Z,17.33
2023-03-30T18:10:55.191Z,18.63
2023-03-30T18:13:23.501Z,20.17
2023-03-30T18:15:54.800Z,18.33
2023-03-30T18:18:29.427Z,16.60
2023-03-30T18:21:05.404Z,19.25
2023-03-30T18:23:34.369Z,36.45
2023-03-30T18:26:08.322Z,34.42
2023-03-30T18:28:40.682Z,51.97
2023-03-30T18:31:08.734Z,30.73
2023-03-30T18:33:35.928Z,33.78
2023-03-30T18:36:05.951Z,19.97
2023-03-30T18:38:33.538Z,19.30
2023-03-30T18:41:01.528Z,16.00
2023-03-30T18:43:29.232Z,13.80
2023-03-30T18:46:01.545Z,21.60
2023-03-30T18:48:29.567Z,15.15
2023-03-30T18:50:57.523Z,15.73
2023-03-30T18:53:27.476Z,16.60
2023-03-30T18:55:58.089Z,16.17
2023-03-30T18:58:31.245Z,14.47
2023-03-30T19:00:58.453Z,17.57
2023-03-30T19:03:27.527Z,12.63
2023-03-30T19:05:54.707Z,17.40
2023-03-30T19:08:24.667Z,18.47
2023-03-30T19:10:55.485Z,9.90
2023-03-30T19:13:24.157Z,10.27
2023-03-30T19:15:52.470Z,13.80
2023-03-30T19:18:20.491Z,14.80
2023-03-30T19:20:50.052Z,13.70
2023-03-30T19:23:19.042Z,10.70
2023-03-30T19:25:46.278Z,16.23
2023-03-30T19:28:15.443Z,14.73
2023-03-30T19:30:43.647Z,12.73
2023-03-30T19:33:19.845Z,11.90
2023-03-30T19:35:47.248Z,17.00
2023-03-30T19:38:15.838Z,15.77
2023-03-30T19:40:43.216Z,13.07
2023-03-30T19:43:11.102Z,15.10
2023-03-30T19:45:38.823Z,10.33
2023-03-30T19:48:06.328Z,18.73
2023-03-30T19:50:33.647Z,13.03
2023-03-30T19:53:00.851Z,14.07
2023-03-30T19:55:28.575Z,14.40
2023-03-30T19:57:55.813Z,12.40
2023-03-30T20:00:23.496Z,14.87
2023-03-30T20:02:54.201Z,15.80
2023-03-30T20:05:23.940Z,16.47
2023-03-30T20:07:51.609Z,16.47
2023-03-30T20:10:27.244Z,12.13
2023-03-30T20:12:54.758Z,18.67
2023-03-30T20:15:24.900Z,14.47
2023-03-30T20:17:56.601Z,18.53
2023-03-30T20:20:25.551Z,14.57
2023-03-30T20:22:56.525Z,12.17
2023-03-30T20:25:24.786Z,13.03
2023-03-30T20:27:52.617Z,14.73
2023-03-30T20:30:20.865Z,14.80
2023-03-30T20:33:03.897Z,19.03
2023-03-30T20:35:38.269Z,19.97
2023-03-30T20:38:06.623Z,12.53
2023-03-30T20:40:34.326Z,16.87
2023-03-30T20:43:03.365Z,19.13
2023-03-30T20:45:31.717Z,18.97
2023-03-30T20:48:06.046Z,24.07
2023-03-30T20:50:33.892Z,18.97
2023-03-30T20:53:01.635Z,15.07
2023-03-30T20:55:28.666Z,19.63
2023-03-30T20:57:55.659Z,12.97
2023-03-30T21:00:23.311Z,15.40
2023-03-30T21:02:50.319Z,7.57
2023-03-30T21:05:17.382Z,10.70
2023-03-30T21:07:47.131Z,10.13
2023-03-30T21:10:16.268Z,11.03
2023-03-30T21:12:43.294Z,11.07
2023-03-30T21:15:11.160Z,13.93
2023-03-30T21:17:38.220Z,8.87
2023-03-30T21:20:09.057Z,13.07
2023-03-30T21:22:36.298Z,7.80
2023-03-30T21:25:03.421Z,9.43
2023-03-30T21:27:30.495Z,10.77
2023-03-30T21:29:57.466Z,12.93
2023-03-30T21:32:24.485Z,10.53
2023-03-30T21:34:51.513Z,11.43
2023-03-30T21:37:18.885Z,6.23
2023-03-30T21:39:46.422Z,9.73
2023-03-30T21:42:13.485Z,11.07
2023-03-30T21:44:40.521Z,12.13
2023-03-30T21:47:07.488Z,9.20
2023-03-30T21:49:37.236Z,9.47
2023-03-30T21:52:04.500Z,10.00
2023-03-30T21:54:31.826Z,7.37
2023-03-30T21:56:58.798Z,8.50
2023-03-30T21:59:25.906Z,15.60
2023-03-30T22:01:52.989Z,9.43
2023-03-30T22:04:20.097Z,12.87
2023-03-30T22:06:47.740Z,16.67
2023-03-30T22:09:14.804Z,12.93
2023-03-30T22:11:41.826Z,10.10
2023-03-30T22:14:09.098Z,13.63
2023-03-30T22:16:36.903Z,10.90
2023-03-30T22:19:04.538Z,12.87
2023-03-30T22:21:34.864Z,9.90
2023-03-30T22:24:07.346Z,9.83
2023-03-30T22:26:36.306Z,13.33
2023-03-30T22:29:04.440Z,14.70
2023-03-30T22:31:31.471Z,13.27
2023-03-30T22:33:58.972Z,14.70
2023-03-30T22:36:32.241Z,11.53
2023-03-30T22:39:01.173Z,10.07
2023-03-30T22:41:28.473Z,17.47
2023-03-30T22:43:58.169Z,10.97
2023-03-30T22:46:26.956Z,13.13
2023-03-30T22:48:57.718Z,18.30
2023-03-30T22:51:28.659Z,18.77
2023-03-30T22:54:00.850Z,12.97
2023-03-30T22:56:29.638Z,18.60
2023-03-30T22:58:57.587Z,11.80
2023-03-30T23:01:25.922Z,19.40
2023-03-30T23:03:54.517Z,14.70
2023-03-30T23:06:21.676Z,18.50
2023-03-30T23:08:48.999Z,21.23
2023-03-30T23:11:16.741Z,17.97
2023-03-30T23:13:43.862Z,18.83
2023-03-30T23:16:11.032Z,22.13
2023-03-30T23:18:38.787Z,26.60
2023-03-30T23:21:08.265Z,26.10
2023-03-30T23:23:38.984Z,25.17
2023-03-30T23:26:10.753Z,25.03
2023-03-30T23:28:41.882Z,19.17
2023-03-30T23:31:12.502Z,24.90
2023-03-30T23:33:41.519Z,22.87
2023-03-30T23:36:10.463Z,21.60
2023-03-30T23:38:37.923Z,23.57
2023-03-30T23:41:06.339Z,19.40
2023-03-30T23:43:33.445Z,20.03
2023-03-30T23:46:00.530Z,16.03
2023-03-30T23:48:27.689Z,18.70
2023-03-30T23:50:56.623Z,23.10
2023-03-30T23:53:26.629Z,23.80
2023-03-30T23:55:54.392Z,28.77
2023-03-30T23:58:22.051Z,17.17
